Метеостанция


АнтоновUKKM 201500Z AUTO 26002MPS 9999 // NCD 08/02 Q1026
БориспольUKBB 201500Z 27002MPS 9999 FEW049 08/02 Q1026 R36R/CLRD// NOSIG
Гаврышовка (Винница)UKWW 201500Z 26002MPS 9999 NSC 10/02 Q1027 NOSIG
ДнепропетровскUKDD 201500Z 32004MPS CAVOK 07/02 Q1026 R26/090070 NOSIG
ЖуляныUKKK 201500Z 29003MPS CAVOK 08/02 Q1026 R26/CLRD70 NOSIG
Запорожье(Мокрая)UKDE 201500Z 28003MPS CAVOK 08/02 Q1026 R20/090070 NOSIG
Ивано-ФранковскUKLI 201500Z VRB01MPS CAVOK 11/04 Q1026 NOSIG
Кривой РогUKDR 201500Z 31003MPS CAVOK 10/01 Q1027 R36/09//70 NOSIG
ЛьвовUKLL 201500Z 20003MPS CAVOK 10/05 Q1025 R13/CLRD// NOSIG
НиколаевUKON 200800Z 33002MPS 280V360 CAVOK 11/04 Q1028 R22/090075 NOSIG
ОдессаUKOO 201500Z 00000MPS CAVOK 13/03 Q1028 R34/090060 NOSIG
РовноUKLR 201500Z 00000MPS CAVOK 09/04 Q1025 NOSIG
УжгородUKLU 201500Z 00000MPS 9999 NSC 13/06 Q1027 R10/190065 NOSIG
ХарьковUKHH 201500Z 29004MPS 9999 FEW045 08/M00 Q1023 R25/0///81 NOSIG
ЧерновцыUKLN 201100Z 18002MPS 090V240 CAVOK 14/01 Q1028 R15/09//70 NOSIG
Скачать:
Скачать этот файл (Metar_шпаргалка.jpg)Расшифровка METAR[ ]4799 Кб
Вся информация, которая имеется в использовании на сайте и доступная для скачивания, получена исключительно из открытых источников информации сети Интернет, всякое совпадение с данными, имеющими ограничения в доступе, случайное и не является преднамеренным.
^ Наверх